createdAt,value
2022-12-12T00:02:17.376Z,99376.87
2022-12-12T00:05:19.994Z,99373.31
2022-12-12T00:08:22.786Z,99380.12
2022-12-12T00:11:26.355Z,99384.47
2022-12-12T00:14:28.433Z,99404.56
2022-12-12T00:17:31.046Z,99408.84
2022-12-12T00:20:33.189Z,99411.69
2022-12-12T00:23:35.562Z,99410.31
2022-12-12T00:26:37.670Z,99413.81
2022-12-12T00:29:40.358Z,99416.66
2022-12-12T00:32:42.711Z,99430.31
2022-12-12T00:35:45.530Z,99419.38
2022-12-12T00:38:48.670Z,99441.78
2022-12-12T00:41:50.885Z,99451.09
2022-12-12T00:44:53.292Z,99448.62
2022-12-12T00:47:56.000Z,99440.03
2022-12-12T00:50:58.281Z,99442.75
2022-12-12T00:54:01.061Z,99448.97
2022-12-12T00:57:02.984Z,99445.78
2022-12-12T01:00:07.869Z,99438.66
2022-12-12T01:03:10.079Z,99442.53
2022-12-12T01:06:13.097Z,99426.88
2022-12-12T01:09:15.098Z,99431.09
2022-12-12T01:12:17.374Z,99433.97
2022-12-12T01:15:20.445Z,99428.06
2022-12-12T01:18:23.052Z,99422.97
2022-12-12T01:21:25.279Z,99433.38
2022-12-12T01:24:28.471Z,99435.06
2022-12-12T01:27:30.752Z,99448.16
2022-12-12T01:30:33.903Z,99438.69
2022-12-12T01:33:36.163Z,99435.97
2022-12-12T01:36:38.878Z,99438.72
2022-12-12T01:39:40.830Z,99443.81
2022-12-12T01:42:43.746Z,99431.66
2022-12-12T01:46:04.241Z,99419.28
2022-12-12T01:49:16.370Z,99419.34
2022-12-12T01:52:22.790Z,99419.59
2022-12-12T01:55:25.161Z,99408.53
2022-12-12T01:58:27.190Z,99399.97
2022-12-12T02:01:31.473Z,99404.31
2022-12-12T02:04:34.562Z,99407.13
2022-12-12T02:07:37.085Z,99406.75
2022-12-12T02:10:39.609Z,99417.25
2022-12-12T02:13:41.897Z,99427.53
2022-12-12T02:16:53.181Z,99431.31
2022-12-12T02:20:21.942Z,99419.84
2022-12-12T02:23:30.736Z,99418.53
2022-12-12T02:26:35.716Z,99422.59
2022-12-12T02:29:56.729Z,99424.19
2022-12-12T02:33:18.607Z,99430.66
2022-12-12T02:36:21.220Z,99440.72
2022-12-12T02:39:23.552Z,99429.69
2022-12-12T02:42:26.095Z,99434.88
2022-12-12T02:45:39.768Z,99429.84
2022-12-12T02:49:03.319Z,99429.75
2022-12-12T02:52:06.253Z,99435.34
2022-12-12T02:55:09.065Z,99439.31
2022-12-12T02:58:11.620Z,99438.97
2022-12-12T03:01:17.014Z,99447.06
2022-12-12T03:04:42.372Z,99445.41
2022-12-12T03:08:00.191Z,99443.13
2022-12-12T03:11:07.537Z,99449.22
2022-12-12T03:14:17.661Z,99447.72
2022-12-12T03:17:32.676Z,99448.03
2022-12-12T03:20:38.781Z,99454.84
2022-12-12T03:23:44.470Z,99446.44
2022-12-12T03:27:00.385Z,99447.47
2022-12-12T03:30:05.787Z,99445.56
2022-12-12T03:33:34.626Z,99432.47
2022-12-12T03:36:56.942Z,99440.66
2022-12-12T03:40:03.699Z,99449.72
2022-12-12T03:43:08.953Z,99455.66
2022-12-12T03:46:17.996Z,99447.88
2022-12-12T03:49:42.964Z,99474.31
2022-12-12T03:52:53.088Z,99482.16
2022-12-12T03:56:07.835Z,99480.97
2022-12-12T03:59:12.944Z,99492.59
2022-12-12T04:02:19.779Z,99499.09
2022-12-12T04:05:25.638Z,99499.41
2022-12-12T04:08:28.432Z,99508.50
2022-12-12T04:11:54.062Z,99508.63
2022-12-12T04:15:15.425Z,99519.56
2022-12-12T04:18:40.938Z,99518.38
2022-12-12T04:22:19.656Z,99520.81
2022-12-12T04:25:34.581Z,99530.47
2022-12-12T04:28:38.609Z,99541.66
2022-12-12T04:31:46.337Z,99552.19
2022-12-12T04:35:10.170Z,99556.59
2022-12-12T04:38:18.083Z,99538.59
2022-12-12T04:41:21.222Z,99546.72
2022-12-12T04:44:24.409Z,99544.56
2022-12-12T04:47:29.780Z,99539.78
2022-12-12T04:50:32.814Z,99544.66
2022-12-12T04:53:37.580Z,99555.41
2022-12-12T04:56:43.925Z,99559.16
2022-12-12T04:59:46.174Z,99555.62
2022-12-12T05:02:51.338Z,99555.28
2022-12-12T05:05:57.427Z,99556.63
2022-12-12T05:09:00.929Z,99548.09
2022-12-12T05:12:04.450Z,99547.31
2022-12-12T05:15:07.577Z,99560.41
2022-12-12T05:18:11.424Z,99560.53
2022-12-12T05:21:14.051Z,99567.69
2022-12-12T05:24:17.684Z,99572.25
2022-12-12T05:27:20.281Z,99554.91
2022-12-12T05:30:22.288Z,99567.25
2022-12-12T05:33:25.588Z,99573.28
2022-12-12T05:36:27.626Z,99565.03
2022-12-12T05:39:30.144Z,99570.31
2022-12-12T05:42:32.202Z,99564.28
2022-12-12T05:45:34.769Z,99579.09
2022-12-12T05:48:36.718Z,99575.56
2022-12-12T05:51:39.866Z,99580.91
2022-12-12T05:54:42.683Z,99591.56
2022-12-12T05:57:45.226Z,99592.47
2022-12-12T06:00:48.204Z,99581.09
2022-12-12T06:03:50.590Z,99587.13
2022-12-12T06:06:53.421Z,99591.41
2022-12-12T06:09:56.871Z,99591.50
2022-12-12T06:12:59.282Z,99600.09
2022-12-12T06:16:11.942Z,99607.06
2022-12-12T06:19:15.452Z,99612.22
2022-12-12T06:22:18.444Z,99612.22
2022-12-12T06:25:20.947Z,99619.19
2022-12-12T06:28:23.612Z,99623.53
2022-12-12T06:31:25.775Z,99626.13
2022-12-12T06:34:28.609Z,99625.28
2022-12-12T06:37:32.094Z,99624.44
2022-12-12T06:40:41.761Z,99637.34
2022-12-12T06:43:44.833Z,99635.66
2022-12-12T06:46:47.544Z,99641.69
2022-12-12T06:49:50.056Z,99648.75
2022-12-12T06:52:52.721Z,99651.13
2022-12-12T06:55:55.724Z,99657.84
2022-12-12T06:58:58.842Z,99665.53
2022-12-12T07:02:01.130Z,99661.09
2022-12-12T07:05:03.579Z,99657.47
2022-12-12T07:08:05.523Z,99660.66
2022-12-12T07:11:10.286Z,99663.09
2022-12-12T07:14:12.336Z,99662.81
2022-12-12T07:17:17.034Z,99662.66
2022-12-12T07:20:19.718Z,99672.19
2022-12-12T07:23:22.348Z,99679.72
2022-12-12T07:26:24.633Z,99675.34
2022-12-12T07:29:28.190Z,99687.31
2022-12-12T07:32:32.102Z,99689.16
2022-12-12T07:35:35.063Z,99679.31
2022-12-12T07:38:37.790Z,99685.09
2022-12-12T07:41:40.972Z,99680.03
2022-12-12T07:44:43.381Z,99683.34
2022-12-12T07:47:46.125Z,99681.59
2022-12-12T07:50:50.237Z,99693.44
2022-12-12T07:53:52.596Z,99695.87
2022-12-12T07:56:54.859Z,99699.91
2022-12-12T07:59:58.377Z,99698.94
2022-12-12T08:03:00.641Z,99702.03
2022-12-12T08:06:07.164Z,99691.66
2022-12-12T08:09:09.496Z,99704.44
2022-12-12T08:12:12.079Z,99719.06
2022-12-12T08:15:15.773Z,99723.81
2022-12-12T08:18:18.180Z,99722.03
2022-12-12T08:21:25.096Z,99722.94
2022-12-12T08:24:31.315Z,99722.66
2022-12-12T08:27:33.447Z,99727.63
2022-12-12T08:30:36.052Z,99729.16
2022-12-12T08:33:38.790Z,99733.50
2022-12-12T08:36:43.705Z,99731.66
2022-12-12T08:39:45.934Z,99737.56
2022-12-12T08:42:48.568Z,99741.69
2022-12-12T08:45:50.906Z,99741.50
2022-12-12T08:48:53.312Z,99730.50
2022-12-12T08:51:55.696Z,99728.63
2022-12-12T08:54:58.339Z,99740.66
2022-12-12T08:58:00.623Z,99719.94
2022-12-12T09:01:03.904Z,99727.28
2022-12-12T09:04:06.724Z,99722.41
2022-12-12T09:07:09.450Z,99726.25
2022-12-12T09:10:11.430Z,99734.56
2022-12-12T09:13:14.177Z,99721.81
2022-12-12T09:16:16.955Z,99723.38
2022-12-12T09:19:20.777Z,99729.03
2022-12-12T09:22:22.753Z,99718.44
2022-12-12T09:25:25.323Z,99733.19
2022-12-12T09:28:27.520Z,99746.06
2022-12-12T09:31:29.840Z,99761.28
2022-12-12T09:34:32.412Z,99740.84
2022-12-12T09:37:34.580Z,99750.00
2022-12-12T09:40:39.740Z,99746.59
2022-12-12T09:43:47.884Z,99743.50
2022-12-12T09:46:51.412Z,99750.31
2022-12-12T09:49:56.445Z,99749.94
2022-12-12T09:53:00.756Z,99745.44
2022-12-12T09:56:10.905Z,99739.81
2022-12-12T09:59:20.013Z,99734.09
2022-12-12T10:02:31.830Z,99743.16
2022-12-12T10:05:36.921Z,99740.19
2022-12-12T10:08:47.753Z,99755.03
2022-12-12T10:11:50.572Z,99752.75
2022-12-12T10:14:54.776Z,99751.38
2022-12-12T10:17:59.171Z,99765.88
2022-12-12T10:21:02.987Z,99751.13
2022-12-12T10:24:11.484Z,99760.16
2022-12-12T10:27:14.580Z,99750.19
2022-12-12T10:30:18.296Z,99756.00
2022-12-12T10:33:33.801Z,99763.28
2022-12-12T10:36:45.559Z,99764.09
2022-12-12T10:39:53.574Z,99762.84
2022-12-12T10:43:05.437Z,99768.38
2022-12-12T10:46:26.514Z,99764.03
2022-12-12T10:49:29.280Z,99766.88
2022-12-12T10:52:31.289Z,99769.19
2022-12-12T10:55:36.808Z,99772.19
2022-12-12T10:58:42.826Z,99760.41
2022-12-12T11:02:12.294Z,99764.94
2022-12-12T11:05:23.936Z,99767.03
2022-12-12T11:08:26.405Z,99769.69
2022-12-12T11:11:28.879Z,99758.84
2022-12-12T11:14:36.033Z,99758.13
2022-12-12T11:17:40.072Z,99756.06
2022-12-12T11:20:47.647Z,99773.47
2022-12-12T11:23:53.254Z,99773.84
2022-12-12T11:27:20.384Z,99779.28
2022-12-12T11:30:23.765Z,99773.78
2022-12-12T11:33:45.919Z,99783.53
2022-12-12T11:36:48.060Z,99791.25
2022-12-12T11:39:51.891Z,99785.91
2022-12-12T11:43:13.884Z,99791.25
2022-12-12T11:46:27.818Z,99785.06
2022-12-12T11:49:30.897Z,99789.13
2022-12-12T11:52:33.806Z,99790.25
2022-12-12T11:55:52.853Z,99801.75
2022-12-12T11:59:15.275Z,99800.91
2022-12-12T12:02:20.117Z,99806.97
2022-12-12T12:05:41.945Z,99812.09
2022-12-12T12:08:56.131Z,99810.28
2022-12-12T12:12:05.079Z,99801.22
2022-12-12T12:15:19.637Z,99804.53
2022-12-12T12:18:43.549Z,99805.56
2022-12-12T12:21:53.796Z,99807.00
2022-12-12T12:25:17.274Z,99793.88
2022-12-12T12:28:44.359Z,99801.97
2022-12-12T12:31:55.824Z,99790.94
2022-12-12T12:35:16.564Z,99781.75
2022-12-12T12:38:26.203Z,99777.44
2022-12-12T12:41:47.162Z,99789.50
2022-12-12T12:44:52.523Z,99788.53
2022-12-12T12:48:02.531Z,99795.13
2022-12-12T12:51:13.484Z,99788.31
2022-12-12T12:54:26.088Z,99789.72
2022-12-12T12:57:30.781Z,99794.78
2022-12-12T13:00:35.025Z,99807.88
2022-12-12T13:03:42.641Z,99805.50
2022-12-12T13:06:49.484Z,99814.31
2022-12-12T13:10:01.434Z,99808.66
2022-12-12T13:13:10.529Z,99814.03
2022-12-12T13:16:15.557Z,99810.44
2022-12-12T13:19:31.325Z,99820.59
2022-12-12T13:22:44.589Z,99824.91
2022-12-12T13:25:46.442Z,99826.88
2022-12-12T13:28:52.440Z,99826.81
2022-12-12T13:32:15.060Z,99820.47
2022-12-12T13:35:22.453Z,99816.66
2022-12-12T13:38:29.579Z,99825.34
2022-12-12T13:41:50.666Z,99832.34
2022-12-12T13:44:52.652Z,99833.37
2022-12-12T13:48:00.163Z,99829.56
2022-12-12T13:51:21.150Z,99830.31
2022-12-12T13:54:23.272Z,99817.81
2022-12-12T13:57:27.326Z,99835.38
2022-12-12T14:00:30.603Z,99823.59
2022-12-12T14:03:32.883Z,99831.50
2022-12-12T14:06:34.925Z,99831.50
2022-12-12T14:09:48.278Z,99828.13
2022-12-12T14:12:51.867Z,99835.19
2022-12-12T14:15:57.463Z,99828.44
2022-12-12T14:19:01.982Z,99825.09
2022-12-12T14:22:04.680Z,99831.38
2022-12-12T14:25:14.547Z,99830.75
2022-12-12T14:28:19.876Z,99819.56
2022-12-12T14:31:23.545Z,99818.03
2022-12-12T14:34:28.880Z,99825.03
2022-12-12T14:37:45.867Z,99831.28
2022-12-12T14:40:54.707Z,99822.84
2022-12-12T14:44:37.085Z,99836.97
2022-12-12T14:47:21.023Z,99834.34
2022-12-12T14:50:22.947Z,99837.97
2022-12-12T14:53:32.002Z,99840.63
2022-12-12T14:56:41.592Z,99836.50
2022-12-12T14:59:44.691Z,99842.59
2022-12-12T15:02:51.645Z,99849.50
2022-12-12T15:06:13.864Z,99852.00
2022-12-12T15:09:17.784Z,99859.62
2022-12-12T15:12:22.549Z,99862.91
2022-12-12T15:15:26.583Z,99863.91
2022-12-12T15:18:28.816Z,99875.81
2022-12-12T15:21:33.859Z,99881.09
2022-12-12T15:24:37.776Z,99884.44
2022-12-12T15:27:47.005Z,99883.66
2022-12-12T15:30:53.289Z,99888.94
2022-12-12T15:33:55.315Z,99891.63
2022-12-12T15:37:09.177Z,99891.78
2022-12-12T15:40:14.843Z,99891.69
2022-12-12T15:43:18.824Z,99903.97
2022-12-12T15:46:20.796Z,99906.94
2022-12-12T15:49:39.551Z,99907.75
2022-12-12T15:52:42.276Z,99908.53
2022-12-12T15:55:59.810Z,99907.22
2022-12-12T15:59:04.524Z,99905.62
2022-12-12T16:02:13.820Z,99906.78
2022-12-12T16:05:19.030Z,99902.97
2022-12-12T16:08:32.079Z,99910.25
2022-12-12T16:12:04.093Z,99907.31
2022-12-12T16:15:19.200Z,99918.41
2022-12-12T16:18:23.617Z,99908.25
2022-12-12T16:21:26.469Z,99911.94
2022-12-12T16:24:28.655Z,99912.78
2022-12-12T16:27:30.574Z,99912.66
2022-12-12T16:30:32.760Z,99916.38
2022-12-12T16:33:35.778Z,99917.28
2022-12-12T16:36:41.890Z,99920.41
2022-12-12T16:39:44.691Z,99923.72
2022-12-12T16:42:55.089Z,99929.56
2022-12-12T16:45:57.543Z,99923.50
2022-12-12T16:49:04.625Z,99920.78
2022-12-12T16:52:06.722Z,99920.81
2022-12-12T16:55:13.941Z,99927.09
2022-12-12T16:58:16.401Z,99923.72
2022-12-12T17:01:19.559Z,99926.06
2022-12-12T17:04:23.049Z,99931.66
2022-12-12T17:07:25.341Z,99929.91
2022-12-12T17:10:29.797Z,99924.69
2022-12-12T17:13:33.910Z,99927.72
2022-12-12T17:16:35.835Z,99932.72
2022-12-12T17:19:37.980Z,99934.19
2022-12-12T17:22:40.704Z,99944.22
2022-12-12T17:25:42.894Z,99941.94
2022-12-12T17:28:44.805Z,99946.34
2022-12-12T17:31:47.095Z,99944.69
2022-12-12T17:34:49.081Z,99946.38
2022-12-12T17:37:51.317Z,99951.38
2022-12-12T17:40:54.044Z,99948.56
2022-12-12T17:43:56.337Z,99948.81
2022-12-12T17:46:58.256Z,99953.22
2022-12-12T17:50:00.665Z,99951.28
2022-12-12T17:53:02.500Z,99960.66
2022-12-12T17:56:15.290Z,99955.00
2022-12-12T17:59:17.197Z,99960.53
2022-12-12T18:02:19.355Z,99964.88
2022-12-12T18:05:21.531Z,99971.31
2022-12-12T18:08:23.541Z,99973.34
2022-12-12T18:11:27.396Z,99971.16
2022-12-12T18:14:29.447Z,99972.50
2022-12-12T18:17:31.661Z,99975.91
2022-12-12T18:20:35.515Z,99978.41
2022-12-12T18:23:37.660Z,99976.56
2022-12-12T18:26:39.556Z,99978.34
2022-12-12T18:29:42.207Z,99982.25
2022-12-12T18:32:44.152Z,99977.09
2022-12-12T18:35:46.438Z,99985.87
2022-12-12T18:38:48.846Z,99977.50
2022-12-12T18:41:52.020Z,99976.91
2022-12-12T18:44:53.938Z,99998.00
2022-12-12T18:47:56.199Z,99979.94
2022-12-12T18:51:14.706Z,99979.84
2022-12-12T18:54:16.958Z,99996.22
2022-12-12T18:57:18.878Z,99986.66
2022-12-12T19:00:21.248Z,99999.72
2022-12-12T19:03:23.106Z,99997.28
2022-12-12T19:06:30.276Z,100000.69
2022-12-12T19:09:32.178Z,100005.94
2022-12-12T19:12:34.365Z,100003.75
2022-12-12T19:15:36.241Z,100016.09
2022-12-12T19:18:38.467Z,100012.34
2022-12-12T19:21:41.138Z,100017.13
2022-12-12T19:24:43.823Z,100022.47
2022-12-12T19:27:45.721Z,100031.22
2022-12-12T19:30:47.921Z,100030.81
2022-12-12T19:33:49.986Z,100029.81
2022-12-12T19:36:55.289Z,100035.59
2022-12-12T19:39:57.206Z,100052.06
2022-12-12T19:42:59.403Z,100052.03
2022-12-12T19:46:12.369Z,100047.44
2022-12-12T19:49:15.776Z,100061.34
2022-12-12T19:52:18.720Z,100058.78
2022-12-12T19:55:21.078Z,100052.50
2022-12-12T19:58:22.941Z,100053.31
2022-12-12T20:01:28.341Z,100062.44
2022-12-12T20:04:31.066Z,100060.16
2022-12-12T20:07:32.968Z,100063.72
2022-12-12T20:10:36.397Z,100073.34
2022-12-12T20:13:38.632Z,100070.13
2022-12-12T20:16:40.850Z,100076.84
2022-12-12T20:19:43.181Z,100080.38
2022-12-12T20:22:45.372Z,100088.09
2022-12-12T20:25:47.513Z,100088.13
2022-12-12T20:28:50.080Z,100092.13
2022-12-12T20:31:52.415Z,100086.97
2022-12-12T20:34:54.828Z,100087.97
2022-12-12T20:37:59.103Z,100095.63
2022-12-12T20:41:01.762Z,100086.59
2022-12-12T20:44:04.995Z,100083.81
2022-12-12T20:47:14.253Z,100082.16
2022-12-12T20:50:16.636Z,100099.75
2022-12-12T20:53:18.826Z,100091.03
2022-12-12T20:56:21.979Z,100089.44
2022-12-12T20:59:24.342Z,100085.91
2022-12-12T21:02:30.188Z,100087.69
2022-12-12T21:05:33.094Z,100098.31
2022-12-12T21:08:35.097Z,100097.94
2022-12-12T21:11:38.251Z,100097.16
2022-12-12T21:14:41.440Z,100100.19
2022-12-12T21:17:43.670Z,100102.13
2022-12-12T21:20:45.689Z,100094.50
2022-12-12T21:23:47.966Z,100100.50
2022-12-12T21:26:49.940Z,100097.16
2022-12-12T21:29:52.067Z,100103.03
2022-12-12T21:32:53.977Z,100102.59
2022-12-12T21:35:56.173Z,100108.53
2022-12-12T21:38:58.956Z,100115.50
2022-12-12T21:42:01.077Z,100117.84
2022-12-12T21:45:03.053Z,100116.19
2022-12-12T21:48:05.485Z,100124.66
2022-12-12T21:51:08.816Z,100126.19
2022-12-12T21:54:12.740Z,100127.25
2022-12-12T21:57:14.607Z,100121.03
2022-12-12T22:00:16.869Z,100124.31
2022-12-12T22:03:19.108Z,100119.88
2022-12-12T22:06:26.499Z,100107.09
2022-12-12T22:09:28.678Z,100113.31
2022-12-12T22:12:31.565Z,100099.88
2022-12-12T22:15:34.513Z,100110.50
2022-12-12T22:18:36.702Z,100105.69
2022-12-12T22:21:38.998Z,100105.75
2022-12-12T22:24:40.891Z,100106.03
2022-12-12T22:27:43.086Z,100118.94
2022-12-12T22:30:46.624Z,100113.31
2022-12-12T22:33:49.229Z,100118.37
2022-12-12T22:36:51.436Z,100119.78
2022-12-12T22:39:53.633Z,100118.22
2022-12-12T22:42:55.739Z,100121.06
2022-12-12T22:46:02.381Z,100126.53
2022-12-12T22:49:04.421Z,100119.78
2022-12-12T22:52:06.809Z,100123.22
2022-12-12T22:55:08.843Z,100121.56
2022-12-12T22:58:11.049Z,100122.69
2022-12-12T23:01:14.651Z,100117.47
2022-12-12T23:04:16.956Z,100117.59
2022-12-12T23:07:18.958Z,100128.16
2022-12-12T23:10:21.177Z,100130.88
2022-12-12T23:13:23.252Z,100132.50
2022-12-12T23:16:27.499Z,100135.13
2022-12-12T23:19:29.607Z,100136.06
2022-12-12T23:22:31.847Z,100150.09
2022-12-12T23:25:36.314Z,100142.41
2022-12-12T23:28:38.993Z,100141.63
2022-12-12T23:31:40.990Z,100140.94
2022-12-12T23:34:43.183Z,100154.12
2022-12-12T23:37:45.089Z,100149.41
2022-12-12T23:40:47.307Z,100150.75
2022-12-12T23:43:49.368Z,100158.16
2022-12-12T23:46:51.645Z,100159.16
2022-12-12T23:49:53.551Z,100159.47
2022-12-12T23:52:55.729Z,100149.88
2022-12-12T23:56:02.423Z,100156.84
2022-12-12T23:59:05.564Z,100153.00
